Time;durP1;ratioP1;P1;durP2;ratioP2;P2;SDS_P1;SDS_P2;PMS_P1;PMS_P2;Temp;Humidity;BMP_temperature;BMP_pressure;BME280_temperature;BME280_humidity;BME280_pressure;Samples;Min_cycle;Max_cycle;Signal;HPM_P1;HPM_P2
2023/08/24 00:00:26;;;;;;;4.47;2.87;;;;;;;21.08;100.00;97528.28;5091398;28;20397;-73
2023/08/24 00:02:53;;;;;;;4.40;3.33;;;;;;;21.04;100.00;97530.03;5093786;28;20402;-73
2023/08/24 00:05:19;;;;;;;3.30;3.00;;;;;;;21.00;100.00;97527.16;5082068;28;20406;-73
2023/08/24 00:07:47;;;;;;;5.13;3.13;;;;;;;21.00;100.00;97532.53;5073520;28;20486;-73
2023/08/24 00:10:15;;;;;;;3.80;2.78;;;;;;;20.99;100.00;97530.94;5090005;28;20907;-73
2023/08/24 00:12:41;;;;;;;3.35;2.83;;;;;;;20.98;100.00;97532.06;5073302;28;20407;-73
2023/08/24 00:15:10;;;;;;;4.72;3.13;;;;;;;20.95;100.00;97529.22;5055281;28;20414;-73
2023/08/24 00:17:37;;;;;;;5.20;3.10;;;;;;;20.91;100.00;97529.03;5073370;28;20904;-73
2023/08/24 00:20:04;;;;;;;3.88;3.10;;;;;;;20.89;100.00;97528.56;5072996;28;20408;-73
2023/08/24 00:22:30;;;;;;;3.83;2.97;;;;;;;20.90;100.00;97516.69;5073123;28;20468;-73
2023/08/24 00:24:57;;;;;;;4.57;3.17;;;;;;;20.90;100.00;97524.75;5081556;28;20396;-74
2023/08/24 00:27:24;;;;;;;4.22;3.08;;;;;;;20.90;100.00;97518.59;5073383;28;20806;-73
2023/08/24 00:29:50;;;;;;;2.97;2.67;;;;;;;20.88;100.00;97510.03;5072871;28;20811;-72
2023/08/24 00:32:17;;;;;;;4.05;3.10;;;;;;;20.85;100.00;97514.16;5072928;28;20418;-73
2023/08/24 00:34:43;;;;;;;3.05;2.70;;;;;;;20.83;100.00;97505.59;5073138;28;20399;-73
2023/08/24 00:37:09;;;;;;;4.47;3.15;;;;;;;20.80;100.00;97495.47;5072904;28;20414;-73
2023/08/24 00:39:37;;;;;;;5.20;3.43;;;;;;;20.74;100.00;97497.53;5072994;28;20454;-74
2023/08/24 00:42:03;;;;;;;4.05;3.10;;;;;;;20.67;100.00;97486.44;5072567;28;20412;-73
2023/08/24 00:44:31;;;;;;;5.20;3.27;;;;;;;20.65;100.00;97494.03;5072838;28;20417;-74
2023/08/24 00:46:58;;;;;;;3.58;3.00;;;;;;;20.64;100.00;97486.25;5072785;28;20426;-74
2023/08/24 00:49:25;;;;;;;4.10;3.07;;;;;;;20.63;100.00;97487.38;5085086;28;20402;-74
2023/08/24 00:51:52;;;;;;;3.60;2.83;;;;;;;20.63;100.00;97487.38;5092651;28;20417;-72
2023/08/24 00:54:18;;;;;;;5.03;3.30;;;;;;;20.61;100.00;97484.19;5092817;28;20884;-73
2023/08/24 00:56:45;;;;;;;2.95;2.60;;;;;;;20.59;100.00;97481.84;5092697;28;20805;-73
2023/08/24 00:59:11;;;;;;;3.78;3.00;;;;;;;20.57;100.00;97494.00;5093325;28;20409;-73
2023/08/24 01:01:41;;;;;;;3.42;2.92;;;;;;;20.53;100.00;97479.56;5092482;28;20391;-73
2023/08/24 01:04:08;;;;;;;4.10;3.03;;;;;;;20.51;100.00;97476.44;5082732;28;20805;-73
2023/08/24 01:06:34;;;;;;;4.17;2.97;;;;;;;20.50;100.00;97480.22;5086184;28;20434;-73
2023/08/24 01:09:00;;;;;;;5.25;3.30;;;;;;;20.49;100.00;97479.41;5092142;28;20402;-73
2023/08/24 01:11:35;;;;;;;6.10;3.42;;;;;;;20.45;100.00;97471.19;5071838;28;20834;-74
2023/08/24 01:14:08;;;;;;;4.10;3.22;;;;;;;20.43;100.00;97472.59;5089482;28;20879;-73
2023/08/24 01:16:40;;;;;;;3.28;2.88;;;;;;;20.42;100.00;97474.50;5092480;28;20857;-73
2023/08/24 01:19:21;;;;;;;3.58;2.97;;;;;;;20.46;100.00;97470.06;5092413;28;20394;-73
2023/08/24 01:21:47;;;;;;;4.72;2.90;;;;;;;20.48;100.00;97472.47;5092146;28;20459;-74
2023/08/24 01:24:25;;;;;;;4.07;3.00;;;;;;;20.50;100.00;97477.53;5092350;28;20811;-73
2023/08/24 01:26:54;;;;;;;4.45;3.17;;;;;;;20.49;100.00;97471.34;5092178;28;20390;-73
2023/08/24 01:29:21;;;;;;;3.97;3.40;;;;;;;20.51;100.00;97471.06;5083843;28;20810;-73
2023/08/24 01:31:49;;;;;;;5.72;3.88;;;;;;;20.50;100.00;97461.41;5076367;28;20427;-74
2023/08/24 01:34:15;;;;;;;5.45;4.18;;;;;;;20.50;100.00;97464.09;5071734;28;20410;-73
2023/08/24 01:36:43;;;;;;;5.20;3.90;;;;;;;20.51;100.00;97465.66;5072025;28;20491;-73
2023/08/24 01:39:15;;;;;;;8.00;4.20;;;;;;;20.53;100.00;97456.16;5063805;28;20409;-74
2023/08/24 01:41:44;;;;;;;6.43;4.22;;;;;;;20.56;100.00;97462.81;5091693;28;20398;-73
2023/08/24 01:44:15;;;;;;;4.60;4.00;;;;;;;20.60;100.00;97463.78;5091867;28;20497;-73
2023/08/24 01:46:44;;;;;;;5.78;4.20;;;;;;;20.60;100.00;97467.25;5091916;28;20386;-73
2023/08/24 01:49:14;;;;;;;4.40;3.28;;;;;;;20.63;100.00;97458.56;5089851;28;20481;-74
2023/08/24 01:51:41;;;;;;;6.00;3.63;;;;;;;20.63;100.00;97463.16;5085553;28;20417;-73
2023/08/24 01:54:07;;;;;;;4.40;3.30;;;;;;;20.62;100.00;97462.34;5091961;28;20725;-73
2023/08/24 01:56:34;;;;;;;4.88;3.47;;;;;;;20.61;100.00;97468.03;5091370;28;20418;-73
2023/08/24 01:59:00;;;;;;;5.40;3.97;;;;;;;20.59;100.00;97468.38;5091311;28;20406;-73
2023/08/24 02:01:28;;;;;;;4.30;3.30;;;;;;;20.58;100.00;97456.03;5091308;28;20486;-73
2023/08/24 02:03:54;;;;;;;4.47;3.63;;;;;;;20.58;100.00;97461.41;5091534;28;20405;-73
2023/08/24 02:06:21;;;;;;;4.70;3.50;;;;;;;20.58;100.00;97468.69;5083149;28;20406;-73
2023/08/24 02:08:47;;;;;;;4.32;3.22;;;;;;;20.58;100.00;97466.00;5091451;28;20406;-73
2023/08/24 02:11:13;;;;;;;4.13;3.50;;;;;;;20.56;100.00;97474.38;5074286;28;20407;-73
2023/08/24 02:13:40;;;;;;;4.03;3.38;;;;;;;20.53;100.00;97471.50;5091331;28;20871;-73
2023/08/24 02:16:08;;;;;;;4.90;3.53;;;;;;;20.49;100.00;97465.97;5091198;28;20933;-73
2023/08/24 02:18:36;;;;;;;3.72;3.20;;;;;;;20.43;100.00;97457.28;5085953;28;20396;-73
2023/08/24 02:21:07;;;;;;;5.78;3.88;;;;;;;20.39;100.00;97461.66;5070534;28;20924;-73
2023/08/24 02:23:34;;;;;;;6.63;3.47;;;;;;;20.35;100.00;97465.31;5070475;28;20409;-73
2023/08/24 02:26:00;;;;;;;4.00;3.20;;;;;;;20.32;100.00;97469.38;5070736;28;20403;-73
2023/08/24 02:28:26;;;;;;;5.70;3.15;;;;;;;20.29;100.00;97464.63;5083459;28;20394;-73
2023/08/24 02:30:53;;;;;;;5.28;3.53;;;;;;;20.25;100.00;97462.88;5072594;28;20519;-73
2023/08/24 02:33:20;;;;;;;3.92;3.40;;;;;;;20.20;100.00;97466.50;5090892;28;20496;-73
2023/08/24 02:35:48;;;;;;;4.88;3.15;;;;;;;20.17;100.00;97455.56;5090946;28;20849;-73
2023/08/24 02:38:15;;;;;;;4.57;3.45;;;;;;;20.15;100.00;97455.88;5090986;28;20921;-73
2023/08/24 02:40:41;;;;;;;3.65;3.25;;;;;;;20.14;100.00;97458.88;5090664;28;20405;-73
2023/08/24 02:43:07;;;;;;;4.63;3.50;;;;;;;20.14;100.00;97459.69;5090688;28;20398;-73
2023/08/24 02:45:33;;;;;;;5.63;4.28;;;;;;;20.11;100.00;97462.97;5090913;28;20397;-73
2023/08/24 02:48:00;;;;;;;6.30;3.88;;;;;;;20.07;100.00;97462.03;5090725;28;20485;-73
2023/08/24 02:50:26;;;;;;;5.55;3.80;;;;;;;20.06;100.00;97455.06;5090405;28;20767;-73
2023/08/24 02:52:53;;;;;;;4.72;3.50;;;;;;;20.07;100.00;97448.59;5082761;28;20431;-73
2023/08/24 02:55:20;;;;;;;4.73;3.70;;;;;;;20.08;100.00;97447.47;5070286;28;20457;-73
2023/08/24 02:57:46;;;;;;;4.10;3.30;;;;;;;20.09;100.00;97446.38;5070499;28;20479;-73
2023/08/24 03:00:13;;;;;;;3.88;3.03;;;;;;;20.10;100.00;97440.69;5072483;28;20820;-73
2023/08/24 03:02:40;;;;;;;4.20;3.22;;;;;;;20.10;100.00;97445.25;5090475;28;20400;-73
2023/08/24 03:05:07;;;;;;;4.03;3.00;;;;;;;20.10;100.00;97445.25;5090410;28;20402;-73
2023/08/24 03:07:33;;;;;;;3.75;3.13;;;;;;;20.08;100.00;97445.56;5090440;28;20867;-73
2023/08/24 03:10:00;;;;;;;3.40;3.10;;;;;;;20.05;100.00;97446.22;5090317;28;20469;-73
2023/08/24 03:12:26;;;;;;;5.55;3.00;;;;;;;20.02;100.00;97438.75;5090451;28;20404;-73
2023/08/24 03:14:53;;;;;;;4.82;3.33;;;;;;;20.00;100.00;97432.88;5090483;28;20425;-73
2023/08/24 03:17:19;;;;;;;3.13;2.83;;;;;;;20.00;100.00;97432.09;5090498;28;20401;-73
2023/08/24 03:19:45;;;;;;;5.63;3.55;;;;;;;19.98;100.00;97437.00;5090363;28;20397;-73
2023/08/24 03:22:12;;;;;;;3.95;3.10;;;;;;;19.98;100.00;97437.00;5090176;28;20390;-73
2023/08/24 03:24:38;;;;;;;4.05;2.95;;;;;;;19.97;100.00;97433.53;5090398;28;20435;-73
2023/08/24 03:27:06;;;;;;;4.03;3.05;;;;;;;19.96;100.00;97434.63;5090290;28;20437;-73
2023/08/24 03:29:32;;;;;;;5.57;3.20;;;;;;;19.94;100.00;97436.81;5090362;28;20424;-73
2023/08/24 03:31:58;;;;;;;5.60;3.40;;;;;;;19.91;100.00;97434.78;5090018;28;20482;-73
2023/08/24 03:34:24;;;;;;;4.28;3.50;;;;;;;19.88;100.00;97432.69;5090304;28;20587;-73
2023/08/24 03:36:50;;;;;;;4.78;3.20;;;;;;;19.87;100.00;97433.00;5094408;28;20494;-73
2023/08/24 03:39:17;;;;;;;3.67;3.17;;;;;;;19.85;100.00;97436.00;5094323;28;20414;-73
2023/08/24 03:41:43;;;;;;;4.43;3.40;;;;;;;19.84;100.00;97426.38;5094041;28;20960;-73
2023/08/24 03:44:11;;;;;;;5.22;3.22;;;;;;;19.81;100.00;97415.44;5076001;28;20402;-73
2023/08/24 03:46:37;;;;;;;4.05;3.42;;;;;;;19.80;100.00;97413.84;5094211;28;20402;-73
2023/08/24 03:49:03;;;;;;;4.22;3.47;;;;;;;19.80;100.00;97411.94;5094005;28;20394;-73
2023/08/24 03:51:29;;;;;;;5.28;3.50;;;;;;;19.80;100.00;97411.94;5093761;28;20497;-73
2023/08/24 03:53:55;;;;;;;4.45;3.35;;;;;;;19.78;100.00;97403.41;5094001;28;20397;-73
2023/08/24 03:56:21;;;;;;;3.70;3.30;;;;;;;19.79;100.00;97398.81;5094006;28;20409;-73
2023/08/24 03:58:48;;;;;;;3.45;3.05;;;;;;;19.80;100.00;97397.72;5078480;28;20399;-73
2023/08/24 04:01:15;;;;;;;3.50;3.15;;;;;;;19.82;100.00;97392.84;5073334;28;20449;-73
2023/08/24 04:03:41;;;;;;;4.18;3.42;;;;;;;19.83;100.00;97389.06;5055734;28;20411;-73
2023/08/24 04:06:07;;;;;;;3.60;3.30;;;;;;;19.82;100.00;97390.94;5073391;28;20413;-73
2023/08/24 04:08:34;;;;;;;3.60;3.30;;;;;;;19.83;100.00;97384.47;5073480;28;20482;-73
2023/08/24 04:11:00;;;;;;;4.53;3.35;;;;;;;19.84;100.00;97383.38;5073096;28;20476;-73
2023/08/24 04:13:27;;;;;;;4.47;3.63;;;;;;;19.86;100.00;97378.47;5073324;28;20400;-73
2023/08/24 04:15:53;;;;;;;4.10;3.47;;;;;;;19.89;100.00;97379.75;5073285;28;20407;-74
2023/08/24 04:18:20;;;;;;;4.75;3.25;;;;;;;19.91;100.00;97372.19;5073303;28;20472;-74
2023/08/24 04:20:46;;;;;;;4.13;3.17;;;;;;;19.93;100.00;97375.34;5073133;28;20869;-73
2023/08/24 04:23:14;;;;;;;4.22;3.03;;;;;;;19.95;100.00;97383.88;5089855;28;20398;-73
2023/08/24 04:25:40;;;;;;;5.15;3.40;;;;;;;19.96;100.00;97386.25;5079325;28;20406;-72
2023/08/24 04:28:06;;;;;;;4.30;3.40;;;;;;;19.94;100.00;97383.09;5083507;28;20396;-73
2023/08/24 04:30:32;;;;;;;4.57;3.70;;;;;;;19.92;100.00;97376.47;5072867;28;20506;-73
2023/08/24 04:32:59;;;;;;;5.75;3.50;;;;;;;19.91;100.00;97372.19;5089365;28;20497;-73
2023/08/24 04:35:27;;;;;;;4.90;3.50;;;;;;;19.89;100.00;97372.50;5080748;28;20885;-73
2023/08/24 04:37:55;;;;;;;4.45;3.40;;;;;;;19.91;100.00;97364.13;5080273;28;20398;-73
2023/08/24 04:40:21;;;;;;;3.30;3.00;;;;;;;19.91;100.00;97361.44;5089632;28;20453;-73
2023/08/24 04:42:47;;;;;;;3.95;3.33;;;;;;;19.91;100.00;97361.44;5072660;28;20419;-73
2023/08/24 04:45:14;;;;;;;3.97;3.55;;;;;;;19.89;100.00;97364.44;5072596;28;20399;-74
2023/08/24 04:47:40;;;;;;;4.15;3.45;;;;;;;19.88;100.00;97349.41;5072556;28;20400;-74
2023/08/24 04:50:08;;;;;;;4.13;3.70;;;;;;;19.87;100.00;97363.16;5072504;28;20404;-73
2023/08/24 04:52:35;;;;;;;3.83;3.38;;;;;;;19.86;100.00;97367.72;5072389;28;20407;-73
2023/08/24 04:55:03;;;;;;;3.97;3.58;;;;;;;19.85;100.00;97363.44;5072614;28;20893;-73
2023/08/24 04:57:29;;;;;;;5.45;3.67;;;;;;;19.85;100.00;97373.41;5085546;28;20402;-73
2023/08/24 04:59:55;;;;;;;4.78;4.07;;;;;;;19.83;100.00;97359.50;5092724;28;20409;-73
2023/08/24 05:02:22;;;;;;;4.13;3.63;;;;;;;19.84;100.00;97369.16;5072447;28;20392;-73
2023/08/24 05:04:48;;;;;;;4.85;3.97;;;;;;;19.86;100.00;97370.41;5072410;28;20407;-73
2023/08/24 05:07:14;;;;;;;4.22;3.50;;;;;;;19.90;100.00;97362.53;5080088;28;20427;-73
2023/08/24 05:09:42;;;;;;;3.53;3.22;;;;;;;19.93;100.00;97362.69;5072463;28;20767;-73
2023/08/24 05:12:08;;;;;;;4.38;3.60;;;;;;;19.97;100.00;97354.81;5054076;28;21043;-73
2023/08/24 05:14:34;;;;;;;3.40;2.80;;;;;;;20.01;100.00;97351.19;5072091;28;20406;-73
2023/08/24 05:17:00;;;;;;;3.10;2.80;;;;;;;20.06;100.00;97347.56;5088059;28;20455;-73
2023/08/24 05:19:27;;;;;;;2.80;2.60;;;;;;;20.09;100.00;97345.03;5084825;28;20553;-73
2023/08/24 05:21:53;;;;;;;3.70;2.75;;;;;;;20.14;100.00;97341.44;5092078;28;20972;-73
2023/08/24 05:24:20;;;;;;;3.07;2.77;;;;;;;20.19;100.00;97335.88;5092293;28;20394;-73
2023/08/24 05:26:47;;;;;;;3.63;2.90;;;;;;;20.24;100.00;97343.78;5092354;28;20398;-73
2023/08/24 05:29:13;;;;;;;6.85;3.78;;;;;;;20.30;100.00;97339.84;5092232;28;20455;-73
2023/08/24 05:31:39;;;;;;;5.83;3.77;;;;;;;20.36;100.00;97335.94;5073765;28;20418;-73
2023/08/24 05:34:05;;;;;;;6.88;3.72;;;;;;;20.43;100.00;97332.78;5092116;28;20406;-73
2023/08/24 05:36:32;;;;;;;5.00;3.90;;;;;;;20.49;100.00;97323.44;5092002;28;20472;-73
2023/08/24 05:38:58;;;;;;;5.22;4.03;;;;;;;20.53;100.00;97328.97;5092172;28;20895;-73
2023/08/24 05:41:24;;;;;;;5.93;3.83;;;;;;;20.56;100.00;97325.66;5091769;28;20478;-73
2023/08/24 05:43:52;;;;;;;5.30;3.90;;;;;;;20.60;100.00;97318.56;5084469;28;20400;-73
2023/08/24 05:46:19;;;;;;;6.10;4.20;;;;;;;20.63;100.00;97317.91;5071616;28;20403;-73
2023/08/24 05:48:45;;;;;;;8.73;4.67;;;;;;;20.67;100.00;97321.56;5071666;28;20400;-73
2023/08/24 05:51:12;;;;;;;4.50;3.70;;;;;;;20.73;100.00;97323.78;5071216;28;20840;-73
2023/08/24 05:53:40;;;;;;;7.95;4.50;;;;;;;20.80;100.00;97323.28;5071607;28;20762;-73
2023/08/24 05:56:06;;;;;;;6.28;3.92;;;;;;;20.85;100.00;97318.53;5081032;28;20406;-73
2023/08/24 05:58:33;;;;;;;6.22;3.92;;;;;;;20.92;100.00;97318.03;5090855;28;20398;-73
2023/08/24 06:01:00;;;;;;;4.95;3.75;;;;;;;20.99;100.00;97318.34;5091264;28;20798;-73
2023/08/24 06:03:26;;;;;;;5.38;3.78;;;;;;;21.06;100.00;97332.09;5091720;28;20427;-73
2023/08/24 06:05:53;;;;;;;4.93;3.50;;;;;;;21.11;100.00;97334.63;5091451;28;20760;-73
2023/08/24 06:08:19;;;;;;;6.00;3.92;;;;;;;21.15;100.00;97327.50;5091503;28;20406;-73
2023/08/24 06:10:45;;;;;;;7.20;4.40;;;;;;;21.19;100.00;97327.69;5073131;28;20471;-73
2023/08/24 06:13:11;;;;;;;6.27;4.20;;;;;;;21.20;100.00;97335.41;5072565;28;20395;-73
2023/08/24 06:15:38;;;;;;;4.78;3.90;;;;;;;21.23;100.00;97331.31;5071171;28;20434;-73
2023/08/24 06:18:06;;;;;;;4.95;3.78;;;;;;;21.26;100.00;97333.38;5070951;28;20410;-73
2023/08/24 06:20:32;;;;;;;7.43;4.20;;;;;;;21.31;100.00;97327.00;5070857;28;20403;-73
2023/08/24 06:22:59;;;;;;;9.43;4.80;;;;;;;21.35;100.00;97334.09;5070771;28;20404;-73
2023/08/24 06:25:25;;;;;;;6.68;4.38;;;;;;;21.38;100.00;97338.84;5070837;28;20542;-73
2023/08/24 06:27:51;;;;;;;5.80;3.72;;;;;;;21.41;100.00;97346.31;5070996;28;20406;-73
2023/08/24 06:30:17;;;;;;;5.10;3.83;;;;;;;21.44;100.00;97347.53;5081789;28;20960;-73
2023/08/24 06:32:43;;;;;;;5.50;4.13;;;;;;;21.46;100.00;97354.19;5091023;28;20406;-73
2023/08/24 06:35:14;;;;;;;4.85;3.22;;;;;;;21.47;100.00;97355.78;5090921;28;20416;-73
2023/08/24 06:37:40;;;;;;;6.57;3.80;;;;;;;21.48;100.00;97353.88;5090904;28;20425;-73
2023/08/24 06:40:08;;;;;;;4.85;3.53;;;;;;;21.48;100.00;97362.75;5072801;28;20473;-72
2023/08/24 06:42:34;;;;;;;5.13;3.60;;;;;;;21.49;100.00;97368.94;5070535;28;20765;-73
2023/08/24 06:45:00;;;;;;;6.43;3.70;;;;;;;21.52;100.00;97379.84;5070586;28;20407;-73
2023/08/24 06:47:27;;;;;;;5.28;3.75;;;;;;;21.53;100.00;97394.09;5070609;28;20469;-73
2023/08/24 06:49:53;;;;;;;4.80;3.35;;;;;;;21.53;100.00;97402.19;5070436;28;20439;-73
2023/08/24 06:52:20;;;;;;;4.13;3.25;;;;;;;21.52;100.00;97417.56;5073453;28;20406;-73
2023/08/24 06:54:48;;;;;;;3.63;2.95;;;;;;;21.54;100.00;97422.63;5090846;28;20760;-73
2023/08/24 06:57:14;;;;;;;3.97;3.17;;;;;;;21.55;100.00;97430.41;5090457;28;20402;-73
2023/08/24 06:59:41;;;;;;;3.05;2.75;;;;;;;21.59;100.00;97430.53;5090707;28;20428;-73
2023/08/24 07:02:07;;;;;;;3.73;2.70;;;;;;;21.65;100.00;97426.56;5090231;28;20404;-72
2023/08/24 07:04:34;;;;;;;3.60;3.00;;;;;;;21.72;100.00;97412.59;5090550;28;20456;-72
2023/08/24 07:07:00;;;;;;;3.42;2.50;;;;;;;21.81;100.00;97403.34;5090755;28;20398;-72
2023/08/24 07:09:28;;;;;;;3.95;2.65;;;;;;;21.91;100.00;97386.03;5086242;28;20400;-72
2023/08/24 07:11:54;;;;;;;3.75;2.65;;;;;;;21.99;100.00;97383.34;5070125;28;20411;-72
2023/08/24 07:14:20;;;;;;;4.93;3.80;;;;;;;22.06;100.00;97379.34;5070388;28;20499;-73
2023/08/24 07:16:46;;;;;;;5.78;3.40;;;;;;;22.11;100.00;97381.84;5070311;28;20738;-72
2023/08/24 07:19:13;;;;;;;6.00;3.58;;;;;;;22.12;100.00;97367.25;5070242;28;20518;-72
2023/08/24 07:21:39;;;;;;;5.07;3.80;;;;;;;22.12;100.00;97364.56;5069774;28;20406;-73
2023/08/24 07:24:05;;;;;;;5.28;3.38;;;;;;;22.13;100.00;97356.16;5070133;28;20411;-73
2023/08/24 07:26:34;;;;;;;3.22;2.92;;;;;;;22.22;100.00;97354.19;5070174;28;20403;-72
2023/08/24 07:29:00;;;;;;;3.78;3.00;;;;;;;22.33;100.00;97357.28;5070236;28;20506;-73
2023/08/24 07:31:27;;;;;;;3.80;2.97;;;;;;;22.38;100.00;97360.59;5069812;28;20492;-73
2023/08/24 07:33:53;;;;;;;3.77;3.20;;;;;;;22.40;100.00;97362.97;5070071;28;20488;-72
2023/08/24 07:36:19;;;;;;;5.22;3.42;;;;;;;22.43;100.00;97361.50;5051992;28;20411;-72
2023/08/24 07:38:47;;;;;;;3.10;2.55;;;;;;;22.46;100.00;97369.75;5070121;28;20483;-72
2023/08/24 07:41:13;;;;;;;4.05;2.65;;;;;;;22.55;100.00;97359.69;5069768;28;20735;-72
2023/08/24 07:43:40;;;;;;;2.85;2.55;;;;;;;22.67;100.00;97359.75;5084257;28;20406;-73
2023/08/24 07:46:07;;;;;;;2.75;2.55;;;;;;;22.81;100.00;97351.41;5090076;28;20493;-72
2023/08/24 07:48:33;;;;;;;4.17;3.03;;;;;;;22.94;100.00;97353.03;5085190;28;20798;-74
2023/08/24 07:50:59;;;;;;;3.67;3.05;;;;;;;23.08;100.00;97360.84;5069734;28;20423;-74
2023/08/24 07:53:25;;;;;;;4.70;3.17;;;;;;;23.22;100.00;97363.25;5069866;28;20411;-74
2023/08/24 07:55:53;;;;;;;5.10;2.90;;;;;;;23.32;100.00;97365.50;5069788;28;20753;-74
2023/08/24 07:58:19;;;;;;;3.83;2.88;;;;;;;23.40;100.00;97357.31;5069773;28;20396;-73
2023/08/24 08:00:52;;;;;;;4.72;3.13;;;;;;;23.52;100.00;97370.13;5069637;28;20396;-73
2023/08/24 08:03:19;;;;;;;4.13;2.78;;;;;;;23.62;100.00;97369.66;5069686;28;20402;-73
2023/08/24 08:05:46;;;;;;;4.70;3.35;;;;;;;23.72;100.00;97371.16;5069804;28;20392;-73
2023/08/24 08:08:12;;;;;;;4.28;2.80;;;;;;;23.80;100.00;97381.06;5069713;28;20400;-73
2023/08/24 08:10:39;;;;;;;3.58;2.53;;;;;;;23.91;100.00;97387.59;5069493;28;20473;-73
2023/08/24 08:13:05;;;;;;;5.07;3.45;;;;;;;23.99;100.00;97385.91;5069599;28;20503;-74
2023/08/24 08:15:31;;;;;;;4.85;3.35;;;;;;;24.03;100.00;97387.63;5070115;28;20820;-73
2023/08/24 08:17:58;;;;;;;4.63;2.97;;;;;;;24.10;100.00;97382.44;5069585;28;20404;-73
2023/08/24 08:20:25;;;;;;;3.05;2.45;;;;;;;24.21;100.00;97371.97;5069469;28;20446;-73
2023/08/24 08:22:51;;;;;;;4.22;2.80;;;;;;;24.31;100.00;97371.50;5073182;28;20438;-73
2023/08/24 08:25:17;;;;;;;4.47;2.83;;;;;;;24.40;100.00;97363.28;5073299;28;20400;-73
2023/08/24 08:27:43;;;;;;;3.67;2.80;;;;;;;24.47;100.00;97363.47;5073262;28;20513;-73
2023/08/24 08:30:11;;;;;;;4.13;2.80;;;;;;;24.59;100.00;97368.84;5072899;28;20833;-73
2023/08/24 08:32:37;;;;;;;3.13;2.78;;;;;;;24.68;100.00;97359.47;5072763;28;20836;-73
2023/08/24 08:35:06;;;;;;;3.20;2.60;;;;;;;24.78;100.00;97362.84;5073002;28;20499;-73
2023/08/24 08:37:32;;;;;;;3.17;2.53;;;;;;;24.85;100.00;97365.75;5086173;28;20398;-73
2023/08/24 08:39:58;;;;;;;5.18;3.60;;;;;;;24.93;100.00;97362.94;5084279;28;20396;-72
2023/08/24 08:42:25;;;;;;;4.68;2.92;;;;;;;24.96;100.00;97369.59;5072824;28;20424;-73
2023/08/24 08:44:54;;;;;;;3.40;3.00;;;;;;;24.96;100.00;97369.59;5072667;28;20464;-73
2023/08/24 08:47:22;;;;;;;5.28;3.47;;;;;;;25.02;100.00;97376.31;5072510;28;20396;-73
2023/08/24 08:49:50;;;;;;;6.53;3.47;;;;;;;25.11;100.00;97376.19;5072371;28;20407;-73
2023/08/24 08:52:17;;;;;;;5.95;3.63;;;;;;;25.13;100.00;97361.13;5072325;28;20502;-73
2023/08/24 08:54:44;;;;;;;3.88;2.60;;;;;;;25.19;100.00;97358.94;5072565;28;20412;-73
2023/08/24 08:57:10;;;;;;;4.30;2.92;;;;;;;25.29;100.00;97363.88;5072311;28;20437;-73
2023/08/24 08:59:37;;;;;;;4.30;2.80;;;;;;;25.39;100.00;97366.09;5072422;28;20399;-73
2023/08/24 09:02:05;;;;;;;3.40;2.67;;;;;;;25.51;100.00;97366.00;5081442;28;20406;-73
2023/08/24 09:04:33;;;;;;;3.47;2.55;;;;;;;25.63;100.00;97362.47;5092431;28;20472;-73
2023/08/24 09:07:10;;;;;;;3.70;2.50;;;;;;;25.75;100.00;97365.09;5092529;28;20622;-73
2023/08/24 09:09:38;;;;;;;4.82;2.40;;;;;;;25.89;100.00;97364.66;5078826;28;20828;-73
2023/08/24 09:12:06;;;;;;;2.90;2.50;;;;;;;25.98;100.00;97366.03;5053905;28;20771;-73
2023/08/24 09:14:33;;;;;;;2.30;2.10;;;;;;;26.08;100.00;97354.66;5072162;28;20396;-73
2023/08/24 09:16:59;;;;;;;2.67;2.38;;;;;;;26.19;100.00;97347.53;5072032;28;20396;-73
2023/08/24 09:19:29;;;;;;;3.80;2.20;;;;;;;26.30;100.00;97345.13;5076060;28;20509;-73
2023/08/24 09:21:58;;;;;;;3.50;2.25;;;;;;;26.39;100.00;97328.63;5092015;28;20409;-73
2023/08/24 09:24:30;;;;;;;2.78;2.00;;;;;;;26.51;100.00;97325.78;5092208;28;20794;-73
2023/08/24 09:26:58;;;;;;;2.75;2.20;;;;;;;26.61;100.00;97314.34;5092184;28;20824;-73
2023/08/24 09:29:25;;;;;;;2.30;1.83;;;;;;;26.71;100.00;97305.63;5079977;28;20396;-73
2023/08/24 09:31:51;;;;;;;4.38;2.60;;;;;;;26.85;100.00;97305.09;5071018;28;20427;-73
2023/08/24 09:34:20;;;;;;;3.85;2.75;;;;;;;26.93;100.00;97301.41;5074166;28;20866;-73
2023/08/24 09:36:47;;;;;;;5.77;3.20;;;;;;;26.96;99.47;97298.78;5092124;28;20591;-72
2023/08/24 09:39:17;;;;;;;7.10;3.28;;;;;;;27.07;99.01;97298.97;5092122;28;20401;-73
2023/08/24 09:41:47;;;;;;;3.38;2.30;;;;;;;27.18;98.25;97304.59;5091893;28;20421;-73
2023/08/24 09:44:15;;;;;;;2.70;2.10;;;;;;;27.31;98.03;97293.19;5091984;28;20402;-73
2023/08/24 09:46:42;;;;;;;4.18;2.70;;;;;;;27.45;96.99;97291.84;5092068;28;20401;-73
2023/08/24 09:49:10;;;;;;;3.43;2.50;;;;;;;27.57;95.95;97283.56;5091935;28;20408;-73
2023/08/24 09:51:37;;;;;;;4.47;3.00;;;;;;;27.68;95.62;97281.78;5091517;28;20410;-73
2023/08/24 09:54:08;;;;;;;2.53;2.13;;;;;;;27.77;95.04;97270.63;5091834;28;20398;-73
2023/08/24 09:56:37;;;;;;;3.50;2.35;;;;;;;27.86;94.47;97263.00;5091892;28;20398;-72
2023/08/24 09:59:11;;;;;;;2.30;2.10;;;;;;;27.97;93.67;97244.88;5074203;28;20404;-74
2023/08/24 10:01:41;;;;;;;2.85;2.30;;;;;;;28.07;92.87;97247.75;5071312;28;20383;-73
2023/08/24 10:04:11;;;;;;;2.47;2.28;;;;;;;28.19;92.65;97246.00;5071328;28;20402;-73
2023/08/24 10:06:42;;;;;;;2.60;2.28;;;;;;;28.27;92.04;97232.09;5071416;28;20754;-73
2023/08/24 10:09:11;;;;;;;3.33;2.30;;;;;;;28.37;91.28;97222.50;5071342;28;20411;-73
2023/08/24 10:11:43;;;;;;;2.53;2.28;;;;;;;28.47;90.99;97225.38;5070957;28;20422;-73
2023/08/24 10:14:15;;;;;;;2.55;2.35;;;;;;;28.61;90.50;97216.56;5063164;28;20414;-73
2023/08/24 10:16:44;;;;;;;3.42;2.70;;;;;;;28.79;88.48;97217.53;5077038;28;20412;-73
2023/08/24 10:19:12;;;;;;;4.28;2.40;;;;;;;29.00;87.76;97214.25;5071121;28;20908;-73
2023/08/24 10:21:39;;;;;;;3.53;2.50;;;;;;;29.24;86.33;97208.22;5052968;28;20400;-73
2023/08/24 10:24:06;;;;;;;3.97;3.00;;;;;;;29.38;84.71;97202.16;5071065;28;20984;-73
2023/08/24 10:26:33;;;;;;;2.83;2.55;;;;;;;29.50;83.72;97198.31;5075737;28;20391;-73
2023/08/24 10:29:01;;;;;;;3.53;2.77;;;;;;;29.64;83.03;97192.97;5091282;28;20401;-73
2023/08/24 10:31:29;;;;;;;2.42;2.22;;;;;;;29.78;82.31;97198.50;5090958;28;20830;-73
2023/08/24 10:33:58;;;;;;;2.90;2.40;;;;;;;29.92;81.87;97197.81;5091289;28;20716;-74
2023/08/24 10:36:26;;;;;;;4.20;3.00;;;;;;;29.95;80.28;97189.66;5091018;28;20496;-73
2023/08/24 10:38:59;;;;;;;5.28;3.28;;;;;;;29.94;79.76;97188.09;5074910;28;20453;-73
2023/08/24 10:41:27;;;;;;;6.57;3.53;;;;;;;29.97;79.75;97186.56;5070502;28;20744;-73
2023/08/24 10:44:04;;;;;;;4.03;3.20;;;;;;;29.97;79.45;97183.84;5070276;28;20901;-73
2023/08/24 10:46:36;;;;;;;5.60;3.45;;;;;;;29.97;79.36;97178.38;5070733;28;20441;-74
2023/08/24 10:49:07;;;;;;;4.78;3.50;;;;;;;29.96;78.86;97176.81;5070663;28;20435;-73
2023/08/24 10:51:44;;;;;;;4.13;3.28;;;;;;;29.93;78.51;97155.72;5070232;28;20947;-73
2023/08/24 10:54:10;;;;;;;4.68;3.38;;;;;;;29.97;78.71;97156.53;5070640;28;20873;-73
2023/08/24 10:56:38;;;;;;;3.97;2.70;;;;;;;30.07;79.04;97150.34;5070390;28;20953;-73
2023/08/24 10:59:13;;;;;;;3.88;2.88;;;;;;;30.17;78.90;97149.59;5070479;28;20415;-73
2023/08/24 11:01:40;;;;;;;4.07;3.00;;;;;;;30.24;79.16;97146.88;5070209;28;20403;-72
2023/08/24 11:04:08;;;;;;;3.28;2.70;;;;;;;30.31;78.97;97137.91;5070457;28;20475;-73
2023/08/24 11:06:34;;;;;;;3.80;2.90;;;;;;;30.39;79.23;97136.78;5070409;28;20403;-73
2023/08/24 11:09:14;;;;;;;6.47;3.33;;;;;;;30.48;78.54;97130.94;5070403;28;20450;-73
2023/08/24 11:11:41;;;;;;;4.80;4.00;;;;;;;30.50;77.09;97128.63;5070045;28;20472;-73
2023/08/24 11:14:19;;;;;;;8.82;4.38;;;;;;;30.54;76.76;97119.28;5070374;28;20403;-73
2023/08/24 11:16:46;;;;;;;5.60;3.70;;;;;;;30.71;77.33;97131.41;5070280;28;20496;-73
2023/08/24 11:19:14;;;;;;;4.68;3.55;;;;;;;30.90;77.36;97124.78;5089113;28;20931;-73
2023/08/24 11:21:42;;;;;;;3.45;2.85;;;;;;;31.09;77.60;97125.19;5090187;28;20460;-73
2023/08/24 11:24:09;;;;;;;3.90;2.90;;;;;;;31.22;77.35;97125.56;5090347;28;20397;-73
2023/08/24 11:26:41;;;;;;;3.30;2.70;;;;;;;31.33;77.17;97117.38;5090434;28;20895;-73